sensor_id;sensor_type;location;lat;lon;timestamp;temperature;humidity
51029;DHT22;37054;52.054;8.600;2022-07-21T00:01:18;24.30;66.60
51029;DHT22;37054;52.054;8.600;2022-07-21T00:03:46;24.30;66.90
51029;DHT22;37054;52.054;8.600;2022-07-21T00:06:11;24.30;67.00
51029;DHT22;37054;52.054;8.600;2022-07-21T00:08:37;24.30;67.10
51029;DHT22;37054;52.054;8.600;2022-07-21T00:11:03;24.30;67.20
51029;DHT22;37054;52.054;8.600;2022-07-21T00:13:30;24.30;67.20
51029;DHT22;37054;52.054;8.600;2022-07-21T00:15:55;24.30;67.10
51029;DHT22;37054;52.054;8.600;2022-07-21T00:18:22;24.30;67.10
51029;DHT22;37054;52.054;8.600;2022-07-21T00:20:48;24.30;67.20
51029;DHT22;37054;52.054;8.600;2022-07-21T00:23:13;24.30;67.40
51029;DHT22;37054;52.054;8.600;2022-07-21T00:25:39;24.30;67.60
51029;DHT22;37054;52.054;8.600;2022-07-21T00:28:04;24.40;67.60
51029;DHT22;37054;52.054;8.600;2022-07-21T00:30:30;24.50;67.70
51029;DHT22;37054;52.054;8.600;2022-07-21T00:32:55;24.50;67.60
51029;DHT22;37054;52.054;8.600;2022-07-21T00:35:21;24.60;67.70
51029;DHT22;37054;52.054;8.600;2022-07-21T00:37:46;24.70;67.60
51029;DHT22;37054;52.054;8.600;2022-07-21T00:40:12;24.70;67.50
51029;DHT22;37054;52.054;8.600;2022-07-21T00:42:38;24.80;67.20
51029;DHT22;37054;52.054;8.600;2022-07-21T00:45:05;24.80;67.10
51029;DHT22;37054;52.054;8.600;2022-07-21T00:47:31;24.80;67.10
51029;DHT22;37054;52.054;8.600;2022-07-21T00:49:57;24.80;67.00
51029;DHT22;37054;52.054;8.600;2022-07-21T00:52:23;24.70;66.90
51029;DHT22;37054;52.054;8.600;2022-07-21T00:54:48;24.70;67.10
51029;DHT22;37054;52.054;8.600;2022-07-21T00:57:15;24.60;67.40
51029;DHT22;37054;52.054;8.600;2022-07-21T00:59:41;24.60;67.70
51029;DHT22;37054;52.054;8.600;2022-07-21T01:02:07;24.70;67.80
51029;DHT22;37054;52.054;8.600;2022-07-21T01:04:32;24.70;68.00
51029;DHT22;37054;52.054;8.600;2022-07-21T01:07:00;24.70;68.00
51029;DHT22;37054;52.054;8.600;2022-07-21T01:09:26;24.70;68.00
51029;DHT22;37054;52.054;8.600;2022-07-21T01:11:51;24.70;67.80
51029;DHT22;37054;52.054;8.600;2022-07-21T01:14:17;24.70;67.80
51029;DHT22;37054;52.054;8.600;2022-07-21T01:16:43;24.70;67.90
51029;DHT22;37054;52.054;8.600;2022-07-21T01:19:11;24.60;67.90
51029;DHT22;37054;52.054;8.600;2022-07-21T01:21:38;24.60;68.00
51029;DHT22;37054;52.054;8.600;2022-07-21T01:24:04;24.60;68.00
51029;DHT22;37054;52.054;8.600;2022-07-21T01:26:30;24.60;68.10
51029;DHT22;37054;52.054;8.600;2022-07-21T01:28:56;24.70;68.00
51029;DHT22;37054;52.054;8.600;2022-07-21T01:31:22;24.70;68.10
51029;DHT22;37054;52.054;8.600;2022-07-21T01:33:48;24.70;68.20
51029;DHT22;37054;52.054;8.600;2022-07-21T01:36:13;24.70;68.10
51029;DHT22;37054;52.054;8.600;2022-07-21T01:38:39;24.70;68.00
51029;DHT22;37054;52.054;8.600;2022-07-21T01:41:23;24.70;68.30
51029;DHT22;37054;52.054;8.600;2022-07-21T01:43:59;24.70;68.40
51029;DHT22;37054;52.054;8.600;2022-07-21T01:46:25;24.80;68.50
51029;DHT22;37054;52.054;8.600;2022-07-21T01:48:51;24.80;68.40
51029;DHT22;37054;52.054;8.600;2022-07-21T01:51:16;24.80;68.30
51029;DHT22;37054;52.054;8.600;2022-07-21T01:53:42;24.70;68.20
51029;DHT22;37054;52.054;8.600;2022-07-21T01:56:07;24.70;68.10
51029;DHT22;37054;52.054;8.600;2022-07-21T01:58:33;24.70;68.30
51029;DHT22;37054;52.054;8.600;2022-07-21T02:00:59;24.80;68.30
51029;DHT22;37054;52.054;8.600;2022-07-21T02:03:24;24.80;68.40
51029;DHT22;37054;52.054;8.600;2022-07-21T02:05:50;24.80;68.40
51029;DHT22;37054;52.054;8.600;2022-07-21T02:08:15;24.80;68.20
51029;DHT22;37054;52.054;8.600;2022-07-21T02:10:41;24.80;68.20
51029;DHT22;37054;52.054;8.600;2022-07-21T02:13:06;24.80;68.20
51029;DHT22;37054;52.054;8.600;2022-07-21T02:15:32;24.80;68.20
51029;DHT22;37054;52.054;8.600;2022-07-21T02:17:57;24.80;68.30
51029;DHT22;37054;52.054;8.600;2022-07-21T02:20:23;24.70;68.40
51029;DHT22;37054;52.054;8.600;2022-07-21T02:22:49;24.70;68.60
51029;DHT22;37054;52.054;8.600;2022-07-21T02:25:15;24.80;68.60
51029;DHT22;37054;52.054;8.600;2022-07-21T02:27:43;24.80;68.40
51029;DHT22;37054;52.054;8.600;2022-07-21T02:30:09;24.80;68.40
51029;DHT22;37054;52.054;8.600;2022-07-21T02:32:35;24.70;68.40
51029;DHT22;37054;52.054;8.600;2022-07-21T02:35:00;24.80;68.40
51029;DHT22;37054;52.054;8.600;2022-07-21T02:37:27;24.80;68.50
51029;DHT22;37054;52.054;8.600;2022-07-21T02:39:52;24.80;68.50
51029;DHT22;37054;52.054;8.600;2022-07-21T02:42:17;24.90;68.50
51029;DHT22;37054;52.054;8.600;2022-07-21T02:44:43;24.90;68.40
51029;DHT22;37054;52.054;8.600;2022-07-21T02:47:08;24.90;68.40
51029;DHT22;37054;52.054;8.600;2022-07-21T02:49:34;24.90;68.30
51029;DHT22;37054;52.054;8.600;2022-07-21T02:51:59;25.00;68.30
51029;DHT22;37054;52.054;8.600;2022-07-21T02:54:25;24.90;68.20
51029;DHT22;37054;52.054;8.600;2022-07-21T02:56:50;25.00;68.20
51029;DHT22;37054;52.054;8.600;2022-07-21T02:59:15;25.00;68.20
51029;DHT22;37054;52.054;8.600;2022-07-21T03:01:41;25.00;68.10
51029;DHT22;37054;52.054;8.600;2022-07-21T03:04:06;25.00;68.20
51029;DHT22;37054;52.054;8.600;2022-07-21T03:06:32;25.10;68.20
51029;DHT22;37054;52.054;8.600;2022-07-21T03:08:57;25.20;68.20
51029;DHT22;37054;52.054;8.600;2022-07-21T03:11:23;25.20;68.20
51029;DHT22;37054;52.054;8.600;2022-07-21T03:13:48;25.30;68.20
51029;DHT22;37054;52.054;8.600;2022-07-21T03:16:14;25.30;68.10
51029;DHT22;37054;52.054;8.600;2022-07-21T03:18:39;25.40;68.10
51029;DHT22;37054;52.054;8.600;2022-07-21T03:21:06;25.40;68.00
51029;DHT22;37054;52.054;8.600;2022-07-21T03:23:32;25.50;68.00
51029;DHT22;37054;52.054;8.600;2022-07-21T03:25:57;25.50;67.90
51029;DHT22;37054;52.054;8.600;2022-07-21T03:28:23;25.50;67.90
51029;DHT22;37054;52.054;8.600;2022-07-21T03:30:48;25.60;67.80
51029;DHT22;37054;52.054;8.600;2022-07-21T03:33:14;25.60;67.70
51029;DHT22;37054;52.054;8.600;2022-07-21T03:35:39;25.70;67.70
51029;DHT22;37054;52.054;8.600;2022-07-21T03:38:05;25.70;67.70
51029;DHT22;37054;52.054;8.600;2022-07-21T03:40:32;25.70;67.60
51029;DHT22;37054;52.054;8.600;2022-07-21T03:42:58;25.70;67.50
51029;DHT22;37054;52.054;8.600;2022-07-21T03:45:24;25.70;67.60
51029;DHT22;37054;52.054;8.600;2022-07-21T03:47:50;25.70;67.60
51029;DHT22;37054;52.054;8.600;2022-07-21T03:50:16;25.60;67.30
51029;DHT22;37054;52.054;8.600;2022-07-21T03:52:44;25.50;67.30
51029;DHT22;37054;52.054;8.600;2022-07-21T03:55:10;25.50;67.50
51029;DHT22;37054;52.054;8.600;2022-07-21T03:57:39;25.40;67.40
51029;DHT22;37054;52.054;8.600;2022-07-21T04:00:05;25.30;67.40
51029;DHT22;37054;52.054;8.600;2022-07-21T04:02:31;25.20;67.30
51029;DHT22;37054;52.054;8.600;2022-07-21T04:04:56;25.00;67.40
51029;DHT22;37054;52.054;8.600;2022-07-21T04:07:22;24.90;67.30
51029;DHT22;37054;52.054;8.600;2022-07-21T04:09:47;24.70;67.20
51029;DHT22;37054;52.054;8.600;2022-07-21T04:12:13;24.60;67.20
51029;DHT22;37054;52.054;8.600;2022-07-21T04:14:38;24.50;67.20
51029;DHT22;37054;52.054;8.600;2022-07-21T04:17:04;24.30;67.20
51029;DHT22;37054;52.054;8.600;2022-07-21T04:19:29;24.30;67.30
51029;DHT22;37054;52.054;8.600;2022-07-21T04:21:54;24.20;67.50
51029;DHT22;37054;52.054;8.600;2022-07-21T04:24:20;24.10;67.50
51029;DHT22;37054;52.054;8.600;2022-07-21T04:26:45;24.10;67.70
51029;DHT22;37054;52.054;8.600;2022-07-21T04:29:11;24.00;67.90
51029;DHT22;37054;52.054;8.600;2022-07-21T04:31:36;24.00;68.00
51029;DHT22;37054;52.054;8.600;2022-07-21T04:34:02;23.80;67.90
51029;DHT22;37054;52.054;8.600;2022-07-21T04:36:27;23.80;68.00
51029;DHT22;37054;52.054;8.600;2022-07-21T04:38:53;23.80;67.90
51029;DHT22;37054;52.054;8.600;2022-07-21T04:41:19;23.80;68.00
51029;DHT22;37054;52.054;8.600;2022-07-21T04:43:44;23.80;67.90
51029;DHT22;37054;52.054;8.600;2022-07-21T04:46:10;23.80;67.90
51029;DHT22;37054;52.054;8.600;2022-07-21T04:48:35;23.80;68.00
51029;DHT22;37054;52.054;8.600;2022-07-21T04:51:01;23.80;68.10
51029;DHT22;37054;52.054;8.600;2022-07-21T04:53:26;23.80;68.10
51029;DHT22;37054;52.054;8.600;2022-07-21T04:55:52;23.80;68.20
51029;DHT22;37054;52.054;8.600;2022-07-21T04:58:20;23.80;68.30
51029;DHT22;37054;52.054;8.600;2022-07-21T05:00:46;23.80;68.30
51029;DHT22;37054;52.054;8.600;2022-07-21T05:03:11;23.80;68.20
51029;DHT22;37054;52.054;8.600;2022-07-21T05:05:38;23.80;68.50
51029;DHT22;37054;52.054;8.600;2022-07-21T05:08:04;24.00;68.60
51029;DHT22;37054;52.054;8.600;2022-07-21T05:10:30;24.10;68.70
51029;DHT22;37054;52.054;8.600;2022-07-21T05:12:55;24.20;68.90
51029;DHT22;37054;52.054;8.600;2022-07-21T05:15:21;24.30;68.90
51029;DHT22;37054;52.054;8.600;2022-07-21T05:17:46;24.30;68.90
51029;DHT22;37054;52.054;8.600;2022-07-21T05:20:12;24.40;68.70
51029;DHT22;37054;52.054;8.600;2022-07-21T05:22:37;24.60;68.70
51029;DHT22;37054;52.054;8.600;2022-07-21T05:25:09;24.70;68.40
51029;DHT22;37054;52.054;8.600;2022-07-21T05:27:35;24.80;68.30
51029;DHT22;37054;52.054;8.600;2022-07-21T05:30:00;24.80;68.10
51029;DHT22;37054;52.054;8.600;2022-07-21T05:32:26;24.90;67.70
51029;DHT22;37054;52.054;8.600;2022-07-21T05:34:51;25.00;67.90
51029;DHT22;37054;52.054;8.600;2022-07-21T05:37:17;25.20;67.90
51029;DHT22;37054;52.054;8.600;2022-07-21T05:39:42;25.20;67.70
51029;DHT22;37054;52.054;8.600;2022-07-21T05:42:07;25.20;67.60
51029;DHT22;37054;52.054;8.600;2022-07-21T05:44:33;25.30;67.70
51029;DHT22;37054;52.054;8.600;2022-07-21T05:46:58;25.40;67.60
51029;DHT22;37054;52.054;8.600;2022-07-21T05:49:24;25.50;67.70
51029;DHT22;37054;52.054;8.600;2022-07-21T05:51:49;25.60;67.70
51029;DHT22;37054;52.054;8.600;2022-07-21T05:54:15;25.80;67.50
51029;DHT22;37054;52.054;8.600;2022-07-21T05:56:40;25.80;67.50
51029;DHT22;37054;52.054;8.600;2022-07-21T05:59:06;25.90;67.50
51029;DHT22;37054;52.054;8.600;2022-07-21T06:01:31;26.00;67.40
51029;DHT22;37054;52.054;8.600;2022-07-21T06:03:57;26.10;67.40
51029;DHT22;37054;52.054;8.600;2022-07-21T06:06:22;26.10;67.40
51029;DHT22;37054;52.054;8.600;2022-07-21T06:08:48;26.20;67.50
51029;DHT22;37054;52.054;8.600;2022-07-21T06:11:15;26.30;67.50
51029;DHT22;37054;52.054;8.600;2022-07-21T06:13:41;26.40;67.20
51029;DHT22;37054;52.054;8.600;2022-07-21T06:16:07;26.40;67.20
51029;DHT22;37054;52.054;8.600;2022-07-21T06:18:33;26.50;67.40
51029;DHT22;37054;52.054;8.600;2022-07-21T06:20:58;26.70;67.40
51029;DHT22;37054;52.054;8.600;2022-07-21T06:23:24;26.70;67.00
51029;DHT22;37054;52.054;8.600;2022-07-21T06:25:50;26.70;67.00
51029;DHT22;37054;52.054;8.600;2022-07-21T06:28:16;26.70;67.10
51029;DHT22;37054;52.054;8.600;2022-07-21T06:30:42;26.70;67.00
51029;DHT22;37054;52.054;8.600;2022-07-21T06:33:07;26.70;67.20
51029;DHT22;37054;52.054;8.600;2022-07-21T06:35:33;26.90;67.40
51029;DHT22;37054;52.054;8.600;2022-07-21T06:37:58;27.10;68.00
51029;DHT22;37054;52.054;8.600;2022-07-21T06:40:24;27.30;67.80
51029;DHT22;37054;52.054;8.600;2022-07-21T06:42:49;27.30;67.50
51029;DHT22;37054;52.054;8.600;2022-07-21T06:45:15;27.30;67.20
51029;DHT22;37054;52.054;8.600;2022-07-21T06:47:40;27.30;66.90
51029;DHT22;37054;52.054;8.600;2022-07-21T06:50:06;27.30;66.80
51029;DHT22;37054;52.054;8.600;2022-07-21T06:52:35;27.20;66.70
51029;DHT22;37054;52.054;8.600;2022-07-21T06:55:02;27.20;66.80
51029;DHT22;37054;52.054;8.600;2022-07-21T06:57:30;27.20;66.40
51029;DHT22;37054;52.054;8.600;2022-07-21T06:59:56;27.10;66.60
51029;DHT22;37054;52.054;8.600;2022-07-21T07:02:21;27.10;66.80
51029;DHT22;37054;52.054;8.600;2022-07-21T07:04:47;27.20;66.90
51029;DHT22;37054;52.054;8.600;2022-07-21T07:07:13;27.30;67.20
51029;DHT22;37054;52.054;8.600;2022-07-21T07:12:09;27.50;67.10
51029;DHT22;37054;52.054;8.600;2022-07-21T07:14:35;27.70;67.30
51029;DHT22;37054;52.054;8.600;2022-07-21T07:17:01;27.80;67.30
51029;DHT22;37054;52.054;8.600;2022-07-21T07:19:27;27.90;67.20
51029;DHT22;37054;52.054;8.600;2022-07-21T07:21:53;28.00;67.50
51029;DHT22;37054;52.054;8.600;2022-07-21T07:24:19;28.20;67.70
51029;DHT22;37054;52.054;8.600;2022-07-21T07:26:44;28.30;67.60
51029;DHT22;37054;52.054;8.600;2022-07-21T07:29:10;28.30;67.20
51029;DHT22;37054;52.054;8.600;2022-07-21T07:31:36;28.40;66.90
51029;DHT22;37054;52.054;8.600;2022-07-21T07:34:05;28.30;66.70
51029;DHT22;37054;52.054;8.600;2022-07-21T07:36:31;28.30;66.40
51029;DHT22;37054;52.054;8.600;2022-07-21T07:38:56;28.30;66.40
51029;DHT22;37054;52.054;8.600;2022-07-21T07:41:23;28.30;66.40
51029;DHT22;37054;52.054;8.600;2022-07-21T07:43:49;28.30;66.70
51029;DHT22;37054;52.054;8.600;2022-07-21T07:46:16;28.30;66.90
51029;DHT22;37054;52.054;8.600;2022-07-21T07:48:42;28.40;66.90
51029;DHT22;37054;52.054;8.600;2022-07-21T07:51:09;28.40;66.70
51029;DHT22;37054;52.054;8.600;2022-07-21T07:53:35;28.60;67.00
51029;DHT22;37054;52.054;8.600;2022-07-21T07:56:01;28.70;67.10
51029;DHT22;37054;52.054;8.600;2022-07-21T07:58:26;29.00;67.80
51029;DHT22;37054;52.054;8.600;2022-07-21T08:00:55;29.30;68.10
51029;DHT22;37054;52.054;8.600;2022-07-21T08:03:24;29.70;67.80
51029;DHT22;37054;52.054;8.600;2022-07-21T08:05:50;29.80;66.70
51029;DHT22;37054;52.054;8.600;2022-07-21T08:08:16;29.90;66.60
51029;DHT22;37054;52.054;8.600;2022-07-21T08:10:41;30.00;66.60
51029;DHT22;37054;52.054;8.600;2022-07-21T08:13:07;30.10;66.20
51029;DHT22;37054;52.054;8.600;2022-07-21T08:15:51;30.30;66.30
51029;DHT22;37054;52.054;8.600;2022-07-21T08:18:20;30.40;66.30
51029;DHT22;37054;52.054;8.600;2022-07-21T08:21:01;30.50;66.40
51029;DHT22;37054;52.054;8.600;2022-07-21T08:23:33;30.30;64.90
51029;DHT22;37054;52.054;8.600;2022-07-21T08:26:02;30.20;65.60
51029;DHT22;37054;52.054;8.600;2022-07-21T08:28:33;30.10;66.10
51029;DHT22;37054;52.054;8.600;2022-07-21T08:30:58;30.10;66.30
51029;DHT22;37054;52.054;8.600;2022-07-21T08:33:24;30.30;66.30
51029;DHT22;37054;52.054;8.600;2022-07-21T08:35:49;30.50;65.50
51029;DHT22;37054;52.054;8.600;2022-07-21T08:38:15;30.70;65.50
51029;DHT22;37054;52.054;8.600;2022-07-21T08:40:45;30.80;64.70
51029;DHT22;37054;52.054;8.600;2022-07-21T08:43:11;31.10;66.70
51029;DHT22;37054;52.054;8.600;2022-07-21T08:45:48;31.60;65.00
51029;DHT22;37054;52.054;8.600;2022-07-21T08:48:14;32.00;65.60
51029;DHT22;37054;52.054;8.600;2022-07-21T08:50:44;32.40;65.00
51029;DHT22;37054;52.054;8.600;2022-07-21T08:53:10;33.00;64.60
51029;DHT22;37054;52.054;8.600;2022-07-21T08:55:36;33.60;65.40
51029;DHT22;37054;52.054;8.600;2022-07-21T08:58:02;34.10;66.20
51029;DHT22;37054;52.054;8.600;2022-07-21T09:00:28;34.70;63.70
51029;DHT22;37054;52.054;8.600;2022-07-21T09:03:14;35.00;62.40
51029;DHT22;37054;52.054;8.600;2022-07-21T09:05:41;35.70;64.70
51029;DHT22;37054;52.054;8.600;2022-07-21T09:08:06;36.40;63.20
51029;DHT22;37054;52.054;8.600;2022-07-21T09:10:32;36.50;57.50
51029;DHT22;37054;52.054;8.600;2022-07-21T09:12:59;36.40;56.60
51029;DHT22;37054;52.054;8.600;2022-07-21T09:15:25;36.30;54.50
51029;DHT22;37054;52.054;8.600;2022-07-21T09:20:34;36.00;56.80
51029;DHT22;37054;52.054;8.600;2022-07-21T09:23:04;35.90;57.80
51029;DHT22;37054;52.054;8.600;2022-07-21T09:25:49;35.80;57.60
51029;DHT22;37054;52.054;8.600;2022-07-21T09:28:25;35.70;54.40
51029;DHT22;37054;52.054;8.600;2022-07-21T09:33:23;36.10;56.10
51029;DHT22;37054;52.054;8.600;2022-07-21T09:35:56;36.50;52.70
51029;DHT22;37054;52.054;8.600;2022-07-21T09:38:22;36.40;49.00
51029;DHT22;37054;52.054;8.600;2022-07-21T09:40:48;36.10;47.00
51029;DHT22;37054;52.054;8.600;2022-07-21T09:43:35;36.40;51.50
51029;DHT22;37054;52.054;8.600;2022-07-21T09:46:00;37.00;51.80
51029;DHT22;37054;52.054;8.600;2022-07-21T09:48:34;37.50;52.10
51029;DHT22;37054;52.054;8.600;2022-07-21T09:51:22;37.80;51.70
51029;DHT22;37054;52.054;8.600;2022-07-21T09:53:52;38.10;48.00
51029;DHT22;37054;52.054;8.600;2022-07-21T09:56:19;38.50;46.10
51029;DHT22;37054;52.054;8.600;2022-07-21T09:58:49;39.10;44.60
51029;DHT22;37054;52.054;8.600;2022-07-21T10:01:15;39.10;42.30
51029;DHT22;37054;52.054;8.600;2022-07-21T10:03:48;38.90;42.20
51029;DHT22;37054;52.054;8.600;2022-07-21T10:06:14;38.70;43.40
51029;DHT22;37054;52.054;8.600;2022-07-21T10:08:40;38.30;42.10
51029;DHT22;37054;52.054;8.600;2022-07-21T10:11:06;37.90;43.10
51029;DHT22;37054;52.054;8.600;2022-07-21T10:13:32;37.50;43.80
51029;DHT22;37054;52.054;8.600;2022-07-21T10:15:58;37.20;43.70
51029;DHT22;37054;52.054;8.600;2022-07-21T10:18:25;37.10;44.60
51029;DHT22;37054;52.054;8.600;2022-07-21T10:20:52;37.20;45.80
51029;DHT22;37054;52.054;8.600;2022-07-21T10:23:39;37.30;45.20
51029;DHT22;37054;52.054;8.600;2022-07-21T10:26:07;37.20;41.60
51029;DHT22;37054;52.054;8.600;2022-07-21T10:28:34;36.80;40.80
51029;DHT22;37054;52.054;8.600;2022-07-21T10:31:13;36.50;40.60
51029;DHT22;37054;52.054;8.600;2022-07-21T10:36:10;35.40;49.40
51029;DHT22;37054;52.054;8.600;2022-07-21T10:38:39;34.70;50.50
51029;DHT22;37054;52.054;8.600;2022-07-21T10:41:05;33.90;50.40
51029;DHT22;37054;52.054;8.600;2022-07-21T10:45:59;33.50;52.30
51029;DHT22;37054;52.054;8.600;2022-07-21T10:51:03;33.60;51.80
51029;DHT22;37054;52.054;8.600;2022-07-21T10:53:29;33.80;53.60
51029;DHT22;37054;52.054;8.600;2022-07-21T10:55:55;34.60;52.70
51029;DHT22;37054;52.054;8.600;2022-07-21T11:00:56;35.80;53.80
51029;DHT22;37054;52.054;8.600;2022-07-21T11:06:15;36.50;50.60
51029;DHT22;37054;52.054;8.600;2022-07-21T11:08:48;36.70;46.90
51029;DHT22;37054;52.054;8.600;2022-07-21T11:27:19;34.30;50.40
51029;DHT22;37054;52.054;8.600;2022-07-21T11:29:45;33.40;53.10
51029;DHT22;37054;52.054;8.600;2022-07-21T11:32:11;33.00;55.70
51029;DHT22;37054;52.054;8.600;2022-07-21T11:37:03;32.50;58.30
51029;DHT22;37054;52.054;8.600;2022-07-21T11:42:08;32.00;59.30
51029;DHT22;37054;52.054;8.600;2022-07-21T11:44:34;30.80;56.40
51029;DHT22;37054;52.054;8.600;2022-07-21T11:47:01;29.80;59.00
51029;DHT22;37054;52.054;8.600;2022-07-21T11:49:26;29.40;61.40
51029;DHT22;37054;52.054;8.600;2022-07-21T11:51:53;29.30;62.00
51029;DHT22;37054;52.054;8.600;2022-07-21T11:54:23;29.20;63.90
51029;DHT22;37054;52.054;8.600;2022-07-21T11:56:50;29.20;64.30
51029;DHT22;37054;52.054;8.600;2022-07-21T11:59:16;29.20;64.90
51029;DHT22;37054;52.054;8.600;2022-07-21T12:01:49;29.40;65.70
51029;DHT22;37054;52.054;8.600;2022-07-21T12:04:25;29.50;65.80
51029;DHT22;37054;52.054;8.600;2022-07-21T12:06:51;29.60;65.90
51029;DHT22;37054;52.054;8.600;2022-07-21T12:09:16;29.70;66.30
51029;DHT22;37054;52.054;8.600;2022-07-21T12:11:42;29.70;65.70
51029;DHT22;37054;52.054;8.600;2022-07-21T12:14:08;29.60;64.70
51029;DHT22;37054;52.054;8.600;2022-07-21T12:16:46;29.30;64.40
51029;DHT22;37054;52.054;8.600;2022-07-21T12:19:12;29.10;64.40
51029;DHT22;37054;52.054;8.600;2022-07-21T12:21:47;29.00;64.50
51029;DHT22;37054;52.054;8.600;2022-07-21T12:24:15;29.30;66.00
51029;DHT22;37054;52.054;8.600;2022-07-21T12:26:41;29.60;66.10
51029;DHT22;37054;52.054;8.600;2022-07-21T12:29:07;29.90;66.30
51029;DHT22;37054;52.054;8.600;2022-07-21T12:31:33;30.20;66.00
51029;DHT22;37054;52.054;8.600;2022-07-21T12:34:09;30.30;66.00
51029;DHT22;37054;52.054;8.600;2022-07-21T12:36:35;30.40;65.90
51029;DHT22;37054;52.054;8.600;2022-07-21T12:39:12;30.50;66.30
51029;DHT22;37054;52.054;8.600;2022-07-21T12:41:43;31.50;66.90
51029;DHT22;37054;52.054;8.600;2022-07-21T12:44:13;32.70;65.50
51029;DHT22;37054;52.054;8.600;2022-07-21T12:46:53;33.40;62.50
51029;DHT22;37054;52.054;8.600;2022-07-21T12:49:20;33.80;61.50
51029;DHT22;37054;52.054;8.600;2022-07-21T12:51:57;33.70;61.00
51029;DHT22;37054;52.054;8.600;2022-07-21T12:54:23;33.30;60.20
51029;DHT22;37054;52.054;8.600;2022-07-21T12:56:49;32.60;60.60
51029;DHT22;37054;52.054;8.600;2022-07-21T12:59:15;31.80;61.10
51029;DHT22;37054;52.054;8.600;2022-07-21T13:01:40;31.10;61.70
51029;DHT22;37054;52.054;8.600;2022-07-21T13:04:06;30.10;61.30
51029;DHT22;37054;52.054;8.600;2022-07-21T13:06:31;29.30;61.60
51029;DHT22;37054;52.054;8.600;2022-07-21T13:08:57;28.80;62.00
51029;DHT22;37054;52.054;8.600;2022-07-21T13:11:23;28.50;63.50
51029;DHT22;37054;52.054;8.600;2022-07-21T13:13:49;28.70;65.20
51029;DHT22;37054;52.054;8.600;2022-07-21T13:16:15;29.20;66.60
51029;DHT22;37054;52.054;8.600;2022-07-21T13:18:41;30.30;66.70
51029;DHT22;37054;52.054;8.600;2022-07-21T13:21:06;31.40;65.90
51029;DHT22;37054;52.054;8.600;2022-07-21T13:23:32;32.60;64.70
51029;DHT22;37054;52.054;8.600;2022-07-21T13:25:57;32.90;63.20
51029;DHT22;37054;52.054;8.600;2022-07-21T13:28:23;32.70;62.60
51029;DHT22;37054;52.054;8.600;2022-07-21T13:30:48;32.40;63.00
51029;DHT22;37054;52.054;8.600;2022-07-21T13:33:14;32.10;63.00
51029;DHT22;37054;52.054;8.600;2022-07-21T13:35:40;31.80;63.60
51029;DHT22;37054;52.054;8.600;2022-07-21T13:38:06;31.40;63.20
51029;DHT22;37054;52.054;8.600;2022-07-21T13:40:31;31.00;63.50
51029;DHT22;37054;52.054;8.600;2022-07-21T13:42:57;30.70;64.40
51029;DHT22;37054;52.054;8.600;2022-07-21T13:45:22;30.40;64.70
51029;DHT22;37054;52.054;8.600;2022-07-21T13:47:48;30.20;65.00
51029;DHT22;37054;52.054;8.600;2022-07-21T13:50:13;29.90;65.10
51029;DHT22;37054;52.054;8.600;2022-07-21T13:52:39;29.70;64.50
51029;DHT22;37054;52.054;8.600;2022-07-21T13:55:06;29.10;63.10
51029;DHT22;37054;52.054;8.600;2022-07-21T13:57:32;28.50;63.60
51029;DHT22;37054;52.054;8.600;2022-07-21T13:59:57;28.10;64.70
51029;DHT22;37054;52.054;8.600;2022-07-21T14:02:23;27.90;66.00
51029;DHT22;37054;52.054;8.600;2022-07-21T14:04:49;27.80;66.60
51029;DHT22;37054;52.054;8.600;2022-07-21T14:07:14;27.80;66.90
51029;DHT22;37054;52.054;8.600;2022-07-21T14:09:41;27.90;67.60
51029;DHT22;37054;52.054;8.600;2022-07-21T14:12:06;28.00;67.60
51029;DHT22;37054;52.054;8.600;2022-07-21T14:14:32;28.20;67.70
51029;DHT22;37054;52.054;8.600;2022-07-21T14:16:58;28.30;67.80
51029;DHT22;37054;52.054;8.600;2022-07-21T14:19:23;28.60;68.10
51029;DHT22;37054;52.054;8.600;2022-07-21T14:21:49;28.80;68.10
51029;DHT22;37054;52.054;8.600;2022-07-21T14:24:15;29.10;67.90
51029;DHT22;37054;52.054;8.600;2022-07-21T14:26:59;29.40;67.80
51029;DHT22;37054;52.054;8.600;2022-07-21T14:29:24;29.60;67.60
51029;DHT22;37054;52.054;8.600;2022-07-21T14:31:50;29.70;67.50
51029;DHT22;37054;52.054;8.600;2022-07-21T14:34:18;29.70;67.30
51029;DHT22;37054;52.054;8.600;2022-07-21T14:36:43;29.70;67.60
51029;DHT22;37054;52.054;8.600;2022-07-21T14:39:09;29.70;67.80
51029;DHT22;37054;52.054;8.600;2022-07-21T14:41:34;29.60;67.40
51029;DHT22;37054;52.054;8.600;2022-07-21T14:44:00;29.40;67.40
51029;DHT22;37054;52.054;8.600;2022-07-21T14:46:25;29.20;67.10
51029;DHT22;37054;52.054;8.600;2022-07-21T14:48:51;29.10;67.40
51029;DHT22;37054;52.054;8.600;2022-07-21T14:51:17;29.00;68.00
51029;DHT22;37054;52.054;8.600;2022-07-21T14:53:42;29.10;68.40
51029;DHT22;37054;52.054;8.600;2022-07-21T14:56:08;29.30;69.00
51029;DHT22;37054;52.054;8.600;2022-07-21T14:58:34;29.30;68.80
51029;DHT22;37054;52.054;8.600;2022-07-21T15:00:59;29.50;69.00
51029;DHT22;37054;52.054;8.600;2022-07-21T15:03:25;29.60;68.60
51029;DHT22;37054;52.054;8.600;2022-07-21T15:05:50;29.70;68.40
51029;DHT22;37054;52.054;8.600;2022-07-21T15:08:16;29.60;68.10
51029;DHT22;37054;52.054;8.600;2022-07-21T15:10:42;29.50;67.60
51029;DHT22;37054;52.054;8.600;2022-07-21T15:13:08;29.50;66.90
51029;DHT22;37054;52.054;8.600;2022-07-21T15:15:33;29.40;66.70
51029;DHT22;37054;52.054;8.600;2022-07-21T15:18:02;29.30;66.30
51029;DHT22;37054;52.054;8.600;2022-07-21T15:20:27;29.20;66.40
51029;DHT22;37054;52.054;8.600;2022-07-21T15:22:59;29.00;66.00
51029;DHT22;37054;52.054;8.600;2022-07-21T15:25:24;28.90;65.50
51029;DHT22;37054;52.054;8.600;2022-07-21T15:27:50;28.80;65.90
51029;DHT22;37054;52.054;8.600;2022-07-21T15:30:15;28.70;66.00
51029;DHT22;37054;52.054;8.600;2022-07-21T15:32:42;28.50;65.50
51029;DHT22;37054;52.054;8.600;2022-07-21T15:35:10;28.20;65.90
51029;DHT22;37054;52.054;8.600;2022-07-21T15:37:36;27.90;66.40
51029;DHT22;37054;52.054;8.600;2022-07-21T15:45:12;27.80;67.60
51029;DHT22;37054;52.054;8.600;2022-07-21T15:52:39;27.90;67.40
51029;DHT22;37054;52.054;8.600;2022-07-21T15:57:47;27.80;66.40
51029;DHT22;37054;52.054;8.600;2022-07-21T16:00:12;27.50;66.40
51029;DHT22;37054;52.054;8.600;2022-07-21T16:02:41;27.30;66.80
51029;DHT22;37054;52.054;8.600;2022-07-21T16:05:08;27.20;67.10
51029;DHT22;37054;52.054;8.600;2022-07-21T16:07:33;27.10;67.40
51029;DHT22;37054;52.054;8.600;2022-07-21T16:09:59;27.00;67.50
51029;DHT22;37054;52.054;8.600;2022-07-21T16:12:24;27.00;67.70
51029;DHT22;37054;52.054;8.600;2022-07-21T16:14:53;26.90;68.10
51029;DHT22;37054;52.054;8.600;2022-07-21T16:17:18;26.80;68.20
51029;DHT22;37054;52.054;8.600;2022-07-21T16:19:45;26.80;68.40
51029;DHT22;37054;52.054;8.600;2022-07-21T16:22:11;26.70;68.30